Time;durP1;ratioP1;P1;durP2;ratioP2;P2;SDS_P1;SDS_P2;PMS_P1;PMS_P2;Temp;Humidity;BMP_temperature;BMP_pressure;BME280_temperature;BME280_humidity;BME280_pressure;Samples;Min_cycle;Max_cycle;Signal;HPM_P1;HPM_P2
2024/01/04 05:46:13;;;;;;;4.47;1.90;;;;;;;;;;4986587;28;20121;-71
2024/01/04 05:48:41;;;;;;;2.10;1.80;;;;;;;;;;4986619;28;20044;-68
2024/01/04 05:51:07;;;;;;;3.03;1.95;;;;;;;;;;4979810;28;20300;-67
2024/01/04 05:53:36;;;;;;;4.10;2.03;;;;;;;;;;4985148;28;20047;-67
2024/01/04 05:56:03;;;;;;;3.20;1.77;;;;;;;;;;4991572;28;20053;-68
2024/01/04 05:58:31;;;;;;;3.55;1.85;;;;;;;;;;4986394;28;20919;-68
2024/01/04 06:00:58;;;;;;;2.40;1.90;;;;;;;;;;4985890;28;20125;-69
2024/01/04 06:03:24;;;;;;;3.25;1.90;;;;;;;;;;4977151;28;20045;-68
2024/01/04 06:05:55;;;;;;;2.10;1.70;;;;;;;;;;5005210;28;20499;-68
2024/01/04 06:08:23;;;;;;;2.28;1.60;;;;;;;;;;5019445;28;20050;-66
2024/01/04 06:10:51;;;;;;;2.25;1.80;;;;;;;;;;5005479;28;20057;-67
2024/01/04 06:13:18;;;;;;;6.68;2.10;;;;;;;;;;4989486;28;20097;-69
2024/01/04 06:15:47;;;;;;;4.25;2.05;;;;;;;;;;5008797;28;20046;-68
2024/01/04 06:18:16;;;;;;;3.33;2.30;;;;;;;;;;4988579;28;20511;-69
2024/01/04 06:20:43;;;;;;;3.00;2.03;;;;;;;;;;5015900;28;20049;-69
2024/01/04 06:23:09;;;;;;;2.92;2.13;;;;;;;;;;5011116;28;20156;-69
2024/01/04 06:25:36;;;;;;;3.13;2.10;;;;;;;;;;5015428;28;20048;-67
2024/01/04 06:28:08;;;;;;;3.65;2.40;;;;;;;;;;4989688;28;20045;-69
2024/01/04 06:30:36;;;;;;;3.08;2.17;;;;;;;;;;5009395;28;20499;-70
2024/01/04 06:33:03;;;;;;;2.40;1.92;;;;;;;;;;5001617;28;20058;-69
2024/01/04 06:35:32;;;;;;;2.97;2.05;;;;;;;;;;5001207;28;20050;-67
2024/01/04 06:38:04;;;;;;;5.53;2.15;;;;;;;;;;5009633;28;20038;-71
2024/01/04 06:40:30;;;;;;;3.10;2.10;;;;;;;;;;5008038;28;20463;-68
2024/01/04 06:43:00;;;;;;;2.75;2.30;;;;;;;;;;4994405;28;20046;-70
2024/01/04 06:45:27;;;;;;;3.47;2.33;;;;;;;;;;5028144;28;20064;-67
2024/01/04 06:47:55;;;;;;;3.72;2.10;;;;;;;;;;5022122;28;20057;-67
2024/01/04 06:50:23;;;;;;;4.22;2.00;;;;;;;;;;5031253;28;20103;-68
2024/01/04 06:52:49;;;;;;;2.95;2.25;;;;;;;;;;5025194;28;20061;-67
2024/01/04 06:55:18;;;;;;;2.30;2.00;;;;;;;;;;5029615;28;20057;-67
2024/01/04 06:57:45;;;;;;;4.40;2.10;;;;;;;;;;5036136;28;20049;-68
2024/01/04 07:00:15;;;;;;;5.10;2.17;;;;;;;;;;5037226;28;20076;-67
2024/01/04 07:02:49;;;;;;;4.40;2.10;;;;;;;;;;5033068;28;20060;-68
2024/01/04 07:05:15;;;;;;;3.65;2.05;;;;;;;;;;5029369;28;20122;-68
2024/01/04 07:07:45;;;;;;;5.13;2.38;;;;;;;;;;5030775;28;20054;-68
2024/01/04 07:10:13;;;;;;;5.05;2.30;;;;;;;;;;5021093;28;20415;-68
2024/01/04 07:12:41;;;;;;;5.65;2.28;;;;;;;;;;5037293;28;20127;-69
2024/01/04 07:15:07;;;;;;;5.93;2.15;;;;;;;;;;5040360;28;20045;-69
2024/01/04 07:17:36;;;;;;;6.88;2.22;;;;;;;;;;5004913;28;20056;-67
2024/01/04 07:20:03;;;;;;;6.28;2.67;;;;;;;;;;5015440;28;20049;-71
2024/01/04 07:22:35;;;;;;;6.65;2.35;;;;;;;;;;5020842;28;20128;-68
2024/01/04 07:25:02;;;;;;;9.98;2.50;;;;;;;;;;5030634;28;20049;-65
2024/01/04 07:27:29;;;;;;;8.43;2.08;;;;;;;;;;5033523;28;20107;-69
2024/01/04 07:30:02;;;;;;;8.63;2.35;;;;;;;;;;5031899;28;20049;-69
2024/01/04 07:32:29;;;;;;;4.30;2.03;;;;;;;;;;5021413;28;20049;-68
2024/01/04 07:34:56;;;;;;;5.30;2.10;;;;;;;;;;5023553;28;20053;-68
2024/01/04 07:37:23;;;;;;;3.53;2.00;;;;;;;;;;5028578;28;20829;-73
2024/01/04 07:39:52;;;;;;;4.13;2.10;;;;;;;;;;5027866;28;20104;-67
2024/01/04 07:42:22;;;;;;;3.90;2.17;;;;;;;;;;5030265;28;20059;-67
2024/01/04 07:44:48;;;;;;;8.90;3.03;;;;;;;;;;5017326;28;20765;-68
2024/01/04 07:47:21;;;;;;;6.80;2.30;;;;;;;;;;5029664;28;20056;-69
2024/01/04 07:49:49;;;;;;;6.85;2.50;;;;;;;;;;5024387;28;20095;-69
2024/01/04 07:52:22;;;;;;;5.18;2.60;;;;;;;;;;5028423;28;20521;-69
2024/01/04 07:54:49;;;;;;;5.78;2.45;;;;;;;;;;5037362;28;20519;-69
2024/01/04 07:57:16;;;;;;;25.88;2.50;;;;;;;;;;5032574;28;20050;-72
2024/01/04 07:59:43;;;;;;;7.93;2.60;;;;;;;;;;5038885;28;20414;-68
2024/01/04 08:02:12;;;;;;;9.80;2.42;;;;;;;;;;5043308;28;20084;-68
2024/01/04 08:04:41;;;;;;;8.73;2.70;;;;;;;;;;5039823;28;20429;-66
2024/01/04 08:07:11;;;;;;;6.80;2.75;;;;;;;;;;5036487;28;20045;-67
2024/01/04 08:09:37;;;;;;;4.28;2.78;;;;;;;;;;5040333;28;20620;-66
2024/01/04 08:12:09;;;;;;;7.38;2.55;;;;;;;;;;5017404;28;20056;-67
2024/01/04 08:14:38;;;;;;;6.35;2.58;;;;;;;;;;5032379;28;20045;-68
2024/01/04 08:17:09;;;;;;;5.88;2.53;;;;;;;;;;5009810;28;20140;-68
2024/01/04 08:19:37;;;;;;;6.00;2.88;;;;;;;;;;5027421;28;20053;-67
2024/01/04 08:22:04;;;;;;;8.60;2.80;;;;;;;;;;5001668;28;20109;-68
2024/01/04 08:24:30;;;;;;;5.68;2.90;;;;;;;;;;5036162;28;20171;-69
2024/01/04 08:26:58;;;;;;;4.55;2.85;;;;;;;;;;5029609;28;20037;-68
2024/01/04 08:29:27;;;;;;;11.43;3.08;;;;;;;;;;5035358;28;20057;-69
2024/01/04 08:31:55;;;;;;;5.53;3.15;;;;;;;;;;5029679;28;20054;-68
2024/01/04 08:34:22;;;;;;;6.45;3.20;;;;;;;;;;5037770;28;20411;-67
2024/01/04 08:36:49;;;;;;;5.10;2.85;;;;;;;;;;5019854;28;20049;-68
2024/01/04 08:39:17;;;;;;;5.18;2.80;;;;;;;;;;5037023;28;20214;-68
2024/01/04 08:41:45;;;;;;;5.82;2.85;;;;;;;;;;5043088;28;20056;-67
2024/01/04 08:44:11;;;;;;;7.35;3.17;;;;;;;;;;5040663;28;20045;-69
2024/01/04 08:46:39;;;;;;;5.95;3.05;;;;;;;;;;5040042;28;20053;-69
2024/01/04 08:49:07;;;;;;;7.57;2.90;;;;;;;;;;5032298;28;20076;-70
2024/01/04 08:51:37;;;;;;;7.50;3.10;;;;;;;;;;5043300;28;20486;-69
2024/01/04 08:54:03;;;;;;;4.95;2.95;;;;;;;;;;5012868;28;20480;-68
2024/01/04 08:56:30;;;;;;;10.65;3.70;;;;;;;;;;5027200;28;20124;-70
2024/01/04 08:58:57;;;;;;;8.52;3.13;;;;;;;;;;5035766;28;20061;-65
2024/01/04 09:01:25;;;;;;;15.40;4.10;;;;;;;;;;5018505;28;20049;-68
2024/01/04 09:03:53;;;;;;;8.63;4.03;;;;;;;;;;5032565;28;20094;-65
2024/01/04 09:06:23;;;;;;;7.20;4.20;;;;;;;;;;5032615;28;20085;-64
2024/01/04 09:08:52;;;;;;;9.02;4.00;;;;;;;;;;5032385;28;20168;-66
2024/01/04 09:11:20;;;;;;;6.78;3.38;;;;;;;;;;5025073;28;20065;-65
2024/01/04 09:13:47;;;;;;;10.60;3.58;;;;;;;;;;5040296;28;20037;-67
2024/01/04 09:16:14;;;;;;;9.50;3.22;;;;;;;;;;5039075;28;20063;-67
2024/01/04 09:18:40;;;;;;;5.20;2.60;;;;;;;;;;5036878;28;20387;-66
2024/01/04 09:21:08;;;;;;;9.23;2.72;;;;;;;;;;5025239;28;20067;-66
2024/01/04 09:23:37;;;;;;;6.63;2.70;;;;;;;;;;5036690;28;20053;-66
2024/01/04 09:26:14;;;;;;;9.00;2.40;;;;;;;;;;5036277;28;20056;-67
2024/01/04 09:28:40;;;;;;;6.15;2.97;;;;;;;;;;4996733;28;20049;-66
2024/01/04 09:31:07;;;;;;;5.25;2.63;;;;;;;;;;5041446;28;20088;-67
2024/01/04 09:33:34;;;;;;;6.28;3.10;;;;;;;;;;5043883;28;20360;-66
2024/01/04 09:36:03;;;;;;;6.45;3.47;;;;;;;;;;5043483;28;20543;-65
2024/01/04 09:38:32;;;;;;;6.32;3.45;;;;;;;;;;5045660;28;20061;-66
2024/01/04 09:41:27;;;;;;;11.30;3.40;;;;;;;;;;5037351;28;20060;-65
2024/01/04 09:44:00;;;;;;;10.00;4.18;;;;;;;;;;5031719;28;20045;-65
2024/01/04 09:46:34;;;;;;;9.32;4.13;;;;;;;;;;5042072;28;20124;-67
2024/01/04 09:49:07;;;;;;;9.02;4.40;;;;;;;;;;5043273;28;20471;-67
2024/01/04 09:51:39;;;;;;;7.35;3.90;;;;;;;;;;5048643;28;20053;-65
2024/01/04 09:54:09;;;;;;;9.23;4.55;;;;;;;;;;5021776;28;20049;-65
2024/01/04 09:56:42;;;;;;;13.57;5.38;;;;;;;;;;5044469;28;20131;-66
2024/01/04 09:59:11;;;;;;;14.90;6.13;;;;;;;;;;5013198;28;20050;-68
2024/01/04 10:01:38;;;;;;;12.35;5.97;;;;;;;;;;5032968;28;20068;-69
2024/01/04 10:04:17;;;;;;;17.95;6.45;;;;;;;;;;5039850;28;20111;-67
2024/01/04 10:06:50;;;;;;;13.50;6.28;;;;;;;;;;5031682;28;20132;-67
2024/01/04 10:09:38;;;;;;;8.32;5.30;;;;;;;;;;5016285;28;20124;-68
2024/01/04 10:12:08;;;;;;;12.95;5.63;;;;;;;;;;5040878;28;20579;-67
2024/01/04 10:14:35;;;;;;;10.80;4.85;;;;;;;;;;5025034;28;20155;-68
2024/01/04 10:17:03;;;;;;;13.18;5.82;;;;;;;;;;5038474;28;20044;-68
2024/01/04 10:19:31;;;;;;;9.15;4.63;;;;;;;;;;5032589;28;20082;-66
2024/01/04 10:22:08;;;;;;;8.52;3.88;;;;;;;;;;5037273;28;20051;-66
2024/01/04 10:24:41;;;;;;;;;;;;;;;;;;5040145;28;20131;-67
2024/01/04 10:27:08;;;;;;;15.95;3.53;;;;;;;;;;5032502;28;19979;-67
2024/01/04 10:29:37;;;;;;;17.38;4.05;;;;;;;;;;5046409;28;20072;-67
2024/01/04 10:32:12;;;;;;;11.95;4.05;;;;;;;;;;5034990;28;20071;-65
2024/01/04 10:34:41;;;;;;;7.68;3.60;;;;;;;;;;5037355;28;20045;-66
2024/01/04 10:37:11;;;;;;;15.68;3.60;;;;;;;;;;5039361;28;20070;-68
2024/01/04 10:39:38;;;;;;;8.00;4.30;;;;;;;;;;5031342;28;20049;-68
2024/01/04 10:42:05;;;;;;;11.77;4.20;;;;;;;;;;5043086;28;20057;-66
2024/01/04 10:44:33;;;;;;;11.82;3.83;;;;;;;;;;5038457;28;20110;-66
2024/01/04 10:47:03;;;;;;;10.13;4.30;;;;;;;;;;5038196;28;20041;-65
2024/01/04 10:49:30;;;;;;;11.68;4.32;;;;;;;;;;5031958;28;20049;-66
2024/01/04 10:52:00;;;;;;;8.60;4.07;;;;;;;;;;5023022;28;20490;-66
2024/01/04 10:54:34;;;;;;;14.18;5.25;;;;;;;;;;5013448;28;20133;-66
2024/01/04 10:57:03;;;;;;;8.95;4.53;;;;;;;;;;5039315;28;20060;-66
2024/01/04 10:59:30;;;;;;;8.07;3.30;;;;;;;;;;5043897;28;20041;-66
2024/01/04 11:02:00;;;;;;;6.30;3.78;;;;;;;;;;5040752;28;20136;-66
2024/01/04 11:04:26;;;;;;;8.82;3.83;;;;;;;;;;5044412;28;20053;-66
2024/01/04 11:06:54;;;;;;;6.97;2.97;;;;;;;;;;5028744;28;20057;-68
2024/01/04 11:09:21;;;;;;;9.32;3.60;;;;;;;;;;5029257;28;20045;-67
2024/01/04 11:11:54;;;;;;;9.38;3.10;;;;;;;;;;5031406;28;20041;-66
2024/01/04 11:14:20;;;;;;;8.57;3.72;;;;;;;;;;5012926;28;20053;-66
2024/01/04 11:16:57;;;;;;;13.07;3.15;;;;;;;;;;5032429;28;20502;-67
2024/01/04 11:19:32;;;;;;;6.03;3.50;;;;;;;;;;5028558;28;20041;-67
2024/01/04 11:22:21;;;;;;;7.97;3.00;;;;;;;;;;5036481;28;20053;-66
2024/01/04 11:25:26;;;;;;;9.60;3.38;;;;;;;;;;5029907;28;20506;-68
2024/01/04 11:27:53;;;;;;;7.65;3.15;;;;;;;;;;5032040;28;20059;-71
2024/01/04 11:30:20;;;;;;;7.30;3.30;;;;;;;;;;5048752;28;20132;-68
2024/01/04 11:32:49;;;;;;;6.25;3.30;;;;;;;;;;5043871;28;20045;-69
2024/01/04 11:35:16;;;;;;;9.18;3.45;;;;;;;;;;5029136;28;20049;-73
2024/01/04 11:37:51;;;;;;;8.95;3.65;;;;;;;;;;5045175;28;20158;-71
2024/01/04 11:40:29;;;;;;;8.15;3.42;;;;;;;;;;5015332;28;20087;-70
2024/01/04 11:42:57;;;;;;;10.40;3.13;;;;;;;;;;5025718;28;20057;-71
2024/01/04 11:45:25;;;;;;;6.65;2.85;;;;;;;;;;5016250;28;20054;-73
2024/01/04 11:47:52;;;;;;;7.18;2.83;;;;;;;;;;5005881;28;20080;-71
2024/01/04 11:50:21;;;;;;;5.43;3.03;;;;;;;;;;5014722;28;20061;-71
2024/01/04 11:53:06;;;;;;;6.85;3.28;;;;;;;;;;5009592;28;20050;-69
2024/01/04 11:55:36;;;;;;;7.20;2.60;;;;;;;;;;5009280;28;20045;-71
2024/01/04 11:58:09;;;;;;;3.85;2.10;;;;;;;;;;4991398;28;20112;-69
2024/01/04 12:00:37;;;;;;;3.30;1.67;;;;;;;;;;5008792;28;20172;-67
2024/01/04 12:03:15;;;;;;;1.92;1.48;;;;;;;;;;5011466;28;20511;-69
2024/01/04 12:05:55;;;;;;;4.45;1.55;;;;;;;;;;4986485;28;20050;-68
2024/01/04 12:08:37;;;;;;;6.97;1.55;;;;;;;;;;5000787;28;20104;-71
2024/01/04 12:11:19;;;;;;;5.88;1.60;;;;;;;;;;5008942;28;20064;-69
2024/01/04 12:13:46;;;;;;;3.97;1.83;;;;;;;;;;5007128;28;20133;-69
2024/01/04 12:16:17;;;;;;;2.70;1.70;;;;;;;;;;4989506;28;20065;-68
2024/01/04 12:18:45;;;;;;;5.78;2.80;;;;;;;;;;5011277;28;20050;-67
2024/01/04 12:21:17;;;;;;;8.27;4.03;;;;;;;;;;5012745;28;20042;-69
2024/01/04 12:23:45;;;;;;;15.73;6.30;;;;;;;;;;5017647;28;20060;-67
2024/01/04 12:26:14;;;;;;;12.45;5.88;;;;;;;;;;5013946;28;20050;-66
2024/01/04 12:28:41;;;;;;;14.55;6.68;;;;;;;;;;4997003;28;20045;-70
2024/01/04 12:31:09;;;;;;;16.92;6.10;;;;;;;;;;5014438;28;20053;-70
2024/01/04 12:33:35;;;;;;;13.50;5.63;;;;;;;;;;5015802;28;20132;-69
2024/01/04 12:36:04;;;;;;;15.75;6.22;;;;;;;;;;5016860;28;20049;-69
2024/01/04 12:38:32;;;;;;;14.50;5.80;;;;;;;;;;5015907;28;20491;-70
2024/01/04 12:40:59;;;;;;;14.40;6.30;;;;;;;;;;5012511;28;20054;-70
2024/01/04 12:43:26;;;;;;;16.17;6.25;;;;;;;;;;5011135;28;20060;-73
2024/01/04 12:46:02;;;;;;;15.25;6.60;;;;;;;;;;5025129;28;20396;-69
2024/01/04 12:48:30;;;;;;;13.63;6.57;;;;;;;;;;5033699;28;20045;-70
2024/01/04 12:51:14;;;;;;;12.40;6.50;;;;;;;;;;5027264;28;20053;-69
2024/01/04 12:53:46;;;;;;;14.90;6.20;;;;;;;;;;5031432;28;20140;-67
2024/01/04 12:56:15;;;;;;;10.95;5.82;;;;;;;;;;5030522;28;20059;-68
2024/01/04 12:58:45;;;;;;;15.88;6.15;;;;;;;;;;5022732;28;20080;-70
2024/01/04 13:01:13;;;;;;;14.98;6.50;;;;;;;;;;5034356;28;20092;-67
2024/01/04 13:03:40;;;;;;;13.40;5.88;;;;;;;;;;5018422;28;20045;-68
2024/01/04 13:06:06;;;;;;;18.05;5.97;;;;;;;;;;5034054;28;20479;-68
2024/01/04 13:08:32;;;;;;;15.85;6.25;;;;;;;;;;5039665;28;20045;-69
2024/01/04 13:11:05;;;;;;;14.63;6.10;;;;;;;;;;5037980;28;20081;-69
2024/01/04 13:13:37;;;;;;;14.95;6.95;;;;;;;;;;5024793;28;20049;-68
2024/01/04 13:16:05;;;;;;;15.60;6.90;;;;;;;;;;5018614;28;20156;-68
2024/01/04 13:18:32;;;;;;;17.77;7.53;;;;;;;;;;5026371;28;20455;-68
2024/01/04 13:21:00;;;;;;;12.57;6.75;;;;;;;;;;5020660;28;20052;-69
2024/01/04 13:23:29;;;;;;;18.75;8.88;;;;;;;;;;5016834;28;20495;-69
2024/01/04 13:25:57;;;;;;;18.65;7.38;;;;;;;;;;5039349;28;20449;-70
2024/01/04 13:28:24;;;;;;;17.40;7.78;;;;;;;;;;5025771;28;20576;-68
2024/01/04 13:30:54;;;;;;;16.73;7.57;;;;;;;;;;5033133;28;20059;-70
2024/01/04 13:33:21;;;;;;;14.95;7.25;;;;;;;;;;5032996;28;20474;-68
2024/01/04 13:35:49;;;;;;;11.85;7.15;;;;;;;;;;5029867;28;20061;-69
2024/01/04 13:38:16;;;;;;;11.63;7.00;;;;;;;;;;5023087;28;20053;-68
2024/01/04 13:40:43;;;;;;;13.82;6.82;;;;;;;;;;5031126;28;20383;-69
2024/01/04 13:43:09;;;;;;;16.95;7.30;;;;;;;;;;5019551;28;20049;-67
2024/01/04 13:45:36;;;;;;;22.63;7.43;;;;;;;;;;5041499;28;20433;-69
2024/01/04 13:48:03;;;;;;;13.77;7.43;;;;;;;;;;5023670;28;20041;-68
2024/01/04 13:50:31;;;;;;;12.77;7.22;;;;;;;;;;5033186;28;20041;-68
2024/01/04 13:52:57;;;;;;;15.55;7.88;;;;;;;;;;5040932;28;20052;-68
2024/01/04 13:55:24;;;;;;;12.85;6.70;;;;;;;;;;5033082;28;20057;-67
2024/01/04 13:57:50;;;;;;;14.13;7.65;;;;;;;;;;5018473;28;20427;-67
2024/01/04 14:00:18;;;;;;;20.90;8.35;;;;;;;;;;5038536;28;20053;-68
2024/01/04 14:02:44;;;;;;;16.88;8.18;;;;;;;;;;5029368;28;20072;-69
2024/01/04 14:05:11;;;;;;;14.15;6.78;;;;;;;;;;4994385;28;20077;-72
2024/01/04 14:07:37;;;;;;;14.65;6.82;;;;;;;;;;5030977;28;20093;-68
2024/01/04 14:10:08;;;;;;;17.42;7.20;;;;;;;;;;4997224;28;20112;-69
2024/01/04 14:12:34;;;;;;;14.48;7.40;;;;;;;;;;5024764;28;20064;-69
2024/01/04 14:15:01;;;;;;;16.63;6.40;;;;;;;;;;5031700;28;20143;-67
2024/01/04 14:17:29;;;;;;;18.65;6.47;;;;;;;;;;5010423;28;20061;-66
2024/01/04 14:19:55;;;;;;;21.45;6.55;;;;;;;;;;5026602;28;20048;-69
2024/01/04 14:22:21;;;;;;;12.45;6.25;;;;;;;;;;5024295;28;20069;-68
2024/01/04 14:24:50;;;;;;;15.35;6.38;;;;;;;;;;5005980;28;20052;-66
2024/01/04 14:27:17;;;;;;;18.83;5.78;;;;;;;;;;5019313;28;20036;-68
2024/01/04 14:29:44;;;;;;;14.27;6.00;;;;;;;;;;5026909;28;20049;-65
2024/01/04 14:32:11;;;;;;;9.68;5.35;;;;;;;;;;5019124;28;20060;-67
2024/01/04 14:34:40;;;;;;;11.40;5.78;;;;;;;;;;5016938;28;20061;-66
2024/01/04 14:37:06;;;;;;;12.40;5.10;;;;;;;;;;5015772;28;20048;-73
2024/01/04 14:39:32;;;;;;;13.82;5.32;;;;;;;;;;5018512;28;20049;-68
2024/01/04 14:42:00;;;;;;;11.13;5.30;;;;;;;;;;5020496;28;20045;-67
2024/01/04 14:44:27;;;;;;;13.65;5.80;;;;;;;;;;5017905;28;20422;-69
2024/01/04 14:46:54;;;;;;;13.45;6.20;;;;;;;;;;5020651;28;20118;-69
2024/01/04 14:49:21;;;;;;;11.68;5.18;;;;;;;;;;5023525;28;20057;-68
2024/01/04 14:51:47;;;;;;;11.43;5.60;;;;;;;;;;5023402;28;20151;-68
2024/01/04 14:54:18;;;;;;;11.95;5.65;;;;;;;;;;5027817;28;20057;-69
2024/01/04 14:56:45;;;;;;;15.23;5.07;;;;;;;;;;5018492;28;20057;-68
2024/01/04 14:59:13;;;;;;;15.52;5.40;;;;;;;;;;5018903;28;20489;-67
2024/01/04 15:01:41;;;;;;;9.73;4.88;;;;;;;;;;5026579;28;20065;-66
2024/01/04 15:04:07;;;;;;;9.50;4.63;;;;;;;;;;5027377;28;20498;-67
2024/01/04 15:06:33;;;;;;;11.23;4.78;;;;;;;;;;5020192;28;20072;-69
2024/01/04 15:09:01;;;;;;;14.38;5.03;;;;;;;;;;5027435;28;20050;-69
2024/01/04 15:11:29;;;;;;;14.85;5.40;;;;;;;;;;5030896;28;20052;-67
2024/01/04 15:13:55;;;;;;;9.75;5.22;;;;;;;;;;5004032;28;20069;-69
2024/01/04 15:16:22;;;;;;;7.72;4.50;;;;;;;;;;5010070;28;20053;-66
2024/01/04 15:18:48;;;;;;;8.15;4.80;;;;;;;;;;5017865;28;20045;-69
2024/01/04 15:21:15;;;;;;;10.70;4.78;;;;;;;;;;5021488;28;20069;-68
2024/01/04 15:23:42;;;;;;;10.05;4.00;;;;;;;;;;5019390;28;20058;-68
2024/01/04 15:26:08;;;;;;;14.40;4.25;;;;;;;;;;5013482;28;20069;-68
2024/01/04 15:28:35;;;;;;;12.48;3.80;;;;;;;;;;5019191;28;20418;-69
2024/01/04 15:31:01;;;;;;;12.40;4.38;;;;;;;;;;5020451;28;20553;-69
2024/01/04 15:33:28;;;;;;;9.00;4.40;;;;;;;;;;5020590;28;20114;-68
2024/01/04 15:35:56;;;;;;;10.57;4.68;;;;;;;;;;5013093;28;21091;-68
2024/01/04 15:38:24;;;;;;;21.40;4.43;;;;;;;;;;5018535;28;20057;-68
2024/01/04 15:40:52;;;;;;;14.85;4.57;;;;;;;;;;5016805;28;20045;-69
2024/01/04 15:43:20;;;;;;;15.20;5.05;;;;;;;;;;5022793;28;20057;-69
2024/01/04 15:45:47;;;;;;;11.55;5.20;;;;;;;;;;5020907;28;20473;-68
2024/01/04 15:48:22;;;;;;;12.93;4.72;;;;;;;;;;5028143;28;20061;-69
2024/01/04 15:50:49;;;;;;;15.18;5.05;;;;;;;;;;5024137;28;20044;-69
2024/01/04 15:53:15;;;;;;;19.30;4.82;;;;;;;;;;5026337;28;20969;-70
2024/01/04 15:55:43;;;;;;;15.38;4.90;;;;;;;;;;5024423;28;20048;-69
2024/01/04 15:58:11;;;;;;;12.05;4.50;;;;;;;;;;4985364;28;20116;-67
2024/01/04 16:00:38;;;;;;;10.13;4.15;;;;;;;;;;5021049;28;20195;-70
2024/01/04 16:03:05;;;;;;;8.70;4.68;;;;;;;;;;5029170;28;20057;-69
2024/01/04 16:05:35;;;;;;;9.68;4.70;;;;;;;;;;5025426;28;20048;-68
2024/01/04 16:08:02;;;;;;;9.15;4.70;;;;;;;;;;5024131;28;20159;-69
2024/01/04 16:10:29;;;;;;;9.98;4.47;;;;;;;;;;4999286;28;20533;-69
2024/01/04 16:12:56;;;;;;;13.43;4.45;;;;;;;;;;5020476;28;20098;-67
2024/01/04 16:15:22;;;;;;;16.30;4.32;;;;;;;;;;5020506;28;20144;-69
2024/01/04 16:17:52;;;;;;;10.07;4.53;;;;;;;;;;5025985;28;20059;-69
2024/01/04 16:20:18;;;;;;;10.05;4.70;;;;;;;;;;5026275;28;20355;-68
2024/01/04 16:22:45;;;;;;;14.00;4.43;;;;;;;;;;5027827;28;20057;-67
2024/01/04 16:25:11;;;;;;;13.98;4.78;;;;;;;;;;5026217;28;20120;-68
2024/01/04 16:27:37;;;;;;;13.80;4.93;;;;;;;;;;5021570;28;20114;-70
2024/01/04 16:30:04;;;;;;;19.80;4.00;;;;;;;;;;5013550;28;20049;-70
2024/01/04 16:32:31;;;;;;;6.20;3.28;;;;;;;;;;5023459;28;20710;-69
2024/01/04 16:34:58;;;;;;;5.10;3.40;;;;;;;;;;5023814;28;20049;-72
2024/01/04 16:37:25;;;;;;;6.65;3.25;;;;;;;;;;5024609;28;20056;-71
2024/01/04 16:39:52;;;;;;;9.95;3.63;;;;;;;;;;5029541;28;20104;-71
2024/01/04 16:42:19;;;;;;;8.10;3.45;;;;;;;;;;5024361;28;20057;-74
2024/01/04 16:44:46;;;;;;;12.45;3.30;;;;;;;;;;5021111;28;20069;-72
2024/01/04 16:47:20;;;;;;;8.35;2.88;;;;;;;;;;5027048;28;20514;-68
2024/01/04 16:49:46;;;;;;;13.10;3.38;;;;;;;;;;5018479;28;20052;-69
2024/01/04 16:52:13;;;;;;;8.60;3.00;;;;;;;;;;5023440;28;20064;-69
2024/01/04 16:54:41;;;;;;;8.85;3.13;;;;;;;;;;5018725;28;20061;-72
2024/01/04 16:57:07;;;;;;;9.18;3.47;;;;;;;;;;5005020;28;20048;-65
2024/01/04 16:59:36;;;;;;;11.77;3.90;;;;;;;;;;5028500;28;20056;-72
2024/01/04 17:02:04;;;;;;;10.98;3.92;;;;;;;;;;5033293;28;20057;-72
2024/01/04 17:04:30;;;;;;;9.75;3.83;;;;;;;;;;5030851;28;20041;-72
2024/01/04 17:06:58;;;;;;;6.22;3.10;;;;;;;;;;5038428;28;20076;-75
2024/01/04 17:09:25;;;;;;;8.85;2.63;;;;;;;;;;5015199;28;20045;-73
2024/01/04 17:11:53;;;;;;;8.35;2.97;;;;;;;;;;5020693;28;20502;-73
2024/01/04 17:14:19;;;;;;;5.43;3.15;;;;;;;;;;5011652;28;20045;-74
2024/01/04 17:16:46;;;;;;;8.90;2.80;;;;;;;;;;5028470;28;20053;-73
2024/01/04 17:19:13;;;;;;;8.50;2.97;;;;;;;;;;5010056;28;20502;-71
2024/01/04 17:21:40;;;;;;;6.93;2.88;;;;;;;;;;5032450;28;20077;-74
2024/01/04 17:24:09;;;;;;;7.18;3.10;;;;;;;;;;5030070;28;20120;-71
2024/01/04 17:26:37;;;;;;;4.40;2.60;;;;;;;;;;5030301;28;20088;-73
2024/01/04 17:29:06;;;;;;;5.13;2.67;;;;;;;;;;5036724;28;20045;-73
2024/01/04 17:31:32;;;;;;;6.07;3.00;;;;;;;;;;5031177;28;20418;-74
2024/01/04 17:34:01;;;;;;;7.07;3.25;;;;;;;;;;5024898;28;20083;-74
2024/01/04 17:36:29;;;;;;;4.85;2.65;;;;;;;;;;5029728;28;20057;-71
2024/01/04 17:38:55;;;;;;;12.60;3.60;;;;;;;;;;5024681;28;20052;-73
2024/01/04 17:41:24;;;;;;;8.55;4.07;;;;;;;;;;5025594;28;20556;-70
2024/01/04 17:43:51;;;;;;;13.30;3.65;;;;;;;;;;5023184;28;20107;-71
2024/01/04 17:46:18;;;;;;;7.07;3.60;;;;;;;;;;5025209;28;20053;-71
2024/01/04 17:48:44;;;;;;;9.00;3.85;;;;;;;;;;5031066;28;20119;-74
2024/01/04 17:51:12;;;;;;;8.57;4.03;;;;;;;;;;5034550;28;20045;-72
2024/01/04 17:53:40;;;;;;;8.57;4.00;;;;;;;;;;5034370;28;20108;-72
2024/01/04 17:56:07;;;;;;;9.60;4.05;;;;;;;;;;5037540;28;20050;-74
2024/01/04 17:58:39;;;;;;;6.57;3.75;;;;;;;;;;5040328;28;20126;-73
2024/01/04 18:01:11;;;;;;;7.80;4.10;;;;;;;;;;5042826;28;20076;-72
2024/01/04 18:03:43;;;;;;;9.95;4.53;;;;;;;;;;5012840;28;20498;-74
2024/01/04 18:06:10;;;;;;;9.57;4.45;;;;;;;;;;5021997;28;20053;-72
2024/01/04 18:08:40;;;;;;;9.15;4.20;;;;;;;;;;5021274;28;20445;-71
2024/01/04 18:11:08;;;;;;;9.40;4.10;;;;;;;;;;5012659;28;20487;-73
2024/01/04 18:13:36;;;;;;;5.93;3.75;;;;;;;;;;5022368;28;20517;-72
2024/01/04 18:16:07;;;;;;;7.00;3.85;;;;;;;;;;5029753;28;20053;-73
2024/01/04 18:18:33;;;;;;;13.15;4.22;;;;;;;;;;5032078;28;20044;-72
2024/01/04 18:21:00;;;;;;;10.45;4.43;;;;;;;;;;5031600;28;20045;-73
2024/01/04 18:23:29;;;;;;;8.38;3.60;;;;;;;;;;5040774;28;20519;-74
2024/01/04 18:25:58;;;;;;;8.50;3.65;;;;;;;;;;5037477;28;20057;-73
2024/01/04 18:28:25;;;;;;;6.13;3.33;;;;;;;;;;5029291;28;20045;-73
2024/01/04 18:30:53;;;;;;;6.65;3.03;;;;;;;;;;5033372;28;20048;-71
2024/01/04 18:33:19;;;;;;;6.85;3.55;;;;;;;;;;5023328;28;20091;-72
2024/01/04 18:35:47;;;;;;;9.23;3.38;;;;;;;;;;5027951;28;20045;-72
2024/01/04 18:38:15;;;;;;;6.95;3.72;;;;;;;;;;5025549;28;20061;-73
2024/01/04 18:40:43;;;;;;;10.80;3.80;;;;;;;;;;5024836;28;20049;-73
2024/01/04 18:43:10;;;;;;;7.43;3.53;;;;;;;;;;5017189;28;20073;-72
2024/01/04 18:45:37;;;;;;;7.68;3.70;;;;;;;;;;5008486;28;20109;-74
2024/01/04 18:48:04;;;;;;;7.72;3.50;;;;;;;;;;5027183;28;20162;-73
2024/01/04 18:50:30;;;;;;;11.27;3.65;;;;;;;;;;5023037;28;20132;-73
2024/01/04 18:53:01;;;;;;;10.90;3.92;;;;;;;;;;5028337;28;20069;-73
2024/01/04 18:55:28;;;;;;;7.88;3.63;;;;;;;;;;5032159;28;20322;-73
2024/01/04 18:57:55;;;;;;;11.05;4.35;;;;;;;;;;5031399;28;20383;-73
2024/01/04 19:00:23;;;;;;;9.70;4.57;;;;;;;;;;5010897;28;20104;-73
2024/01/04 19:02:50;;;;;;;11.15;3.65;;;;;;;;;;5017322;28;20049;-73
2024/01/04 19:05:19;;;;;;;8.38;4.10;;;;;;;;;;5005347;28;20057;-72
2024/01/04 19:07:45;;;;;;;10.32;4.22;;;;;;;;;;5016379;28;20072;-73
2024/01/04 19:10:13;;;;;;;15.27;4.13;;;;;;;;;;5017667;28;20049;-72
2024/01/04 19:12:40;;;;;;;9.48;4.00;;;;;;;;;;5003422;28;20049;-72
2024/01/04 19:15:08;;;;;;;9.77;3.65;;;;;;;;;;5028940;28;20505;-73
2024/01/04 19:17:36;;;;;;;9.77;4.35;;;;;;;;;;5013042;28;20037;-75
2024/01/04 19:20:09;;;;;;;12.57;4.28;;;;;;;;;;5017629;28;20049;-72
2024/01/04 19:22:36;;;;;;;10.38;4.18;;;;;;;;;;5024818;28;20062;-72
2024/01/04 19:25:04;;;;;;;12.55;4.15;;;;;;;;;;5030080;28;20111;-71
2024/01/04 19:27:33;;;;;;;7.55;3.97;;;;;;;;;;5013916;28;20057;-72
2024/01/04 19:30:00;;;;;;;11.82;3.97;;;;;;;;;;5025808;28;20384;-72
2024/01/04 19:32:26;;;;;;;11.20;4.35;;;;;;;;;;5015823;28;20064;-72
2024/01/04 19:34:53;;;;;;;9.77;4.50;;;;;;;;;;5033466;28;20041;-74
2024/01/04 19:37:21;;;;;;;10.13;4.55;;;;;;;;;;5027369;28;20060;-71
2024/01/04 19:39:50;;;;;;;8.85;4.22;;;;;;;;;;5023302;28;20123;-70
2024/01/04 19:42:16;;;;;;;13.63;4.38;;;;;;;;;;5034736;28;20385;-70
2024/01/04 19:44:43;;;;;;;10.77;4.30;;;;;;;;;;5034518;28;20477;-70
2024/01/04 19:47:11;;;;;;;9.32;4.90;;;;;;;;;;5035427;28;20146;-71
2024/01/04 19:49:37;;;;;;;11.65;4.60;;;;;;;;;;5035754;28;20049;-71
2024/01/04 19:52:05;;;;;;;15.55;5.07;;;;;;;;;;5031874;28;20456;-70
2024/01/04 19:54:31;;;;;;;12.88;4.97;;;;;;;;;;5015630;28;20058;-68
2024/01/04 19:56:58;;;;;;;12.52;5.18;;;;;;;;;;5027933;28;20068;-71
2024/01/04 19:59:25;;;;;;;10.23;4.97;;;;;;;;;;5003709;28;20068;-71
2024/01/04 20:01:51;;;;;;;10.90;5.32;;;;;;;;;;5005832;28;20054;-70
2024/01/04 20:04:19;;;;;;;16.60;6.35;;;;;;;;;;5005713;28;20053;-71
2024/01/04 20:06:46;;;;;;;15.88;6.28;;;;;;;;;;5033788;28;20467;-68
2024/01/04 20:09:13;;;;;;;12.35;6.60;;;;;;;;;;5021377;28;20053;-72
2024/01/04 20:11:42;;;;;;;14.20;6.20;;;;;;;;;;5008975;28;20045;-72
2024/01/04 20:14:09;;;;;;;17.40;6.03;;;;;;;;;;5026732;28;20059;-73
2024/01/04 20:16:36;;;;;;;20.17;6.43;;;;;;;;;;5023282;28;20057;-72
2024/01/04 20:19:04;;;;;;;11.98;5.57;;;;;;;;;;5025574;28;20072;-69
2024/01/04 20:21:30;;;;;;;15.80;5.45;;;;;;;;;;5026844;28;20049;-70
2024/01/04 20:23:56;;;;;;;14.68;6.03;;;;;;;;;;5015707;28;20150;-70
2024/01/04 20:26:22;;;;;;;20.08;8.60;;;;;;;;;;5026566;28;20434;-70
2024/01/04 20:28:49;;;;;;;14.38;7.13;;;;;;;;;;5026140;28;20115;-69
2024/01/04 20:31:15;;;;;;;21.45;6.47;;;;;;;;;;5020580;28;20057;-68